createdAt,value
2018-11-29T00:04:30.807Z,64.90
2018-11-29T00:14:49.851Z,63.90
2018-11-29T00:24:53.983Z,63.90
2018-11-29T00:34:58.140Z,64.60
2018-11-29T00:45:02.259Z,64.90
2018-11-29T00:55:07.401Z,65.80
2018-11-29T01:05:11.584Z,66.30
2018-11-29T01:15:18.301Z,66.50
2018-11-29T01:25:22.401Z,67.00
2018-11-29T01:35:26.500Z,67.00
2018-11-29T01:45:30.615Z,67.20
2018-11-29T01:55:34.973Z,68.50
2018-11-29T02:05:39.085Z,68.00
2018-11-29T02:15:43.168Z,68.10
2018-11-29T02:25:47.274Z,67.20
2018-11-29T02:35:51.484Z,67.60
2018-11-29T02:45:55.603Z,66.80
2018-11-29T02:55:59.704Z,67.60
2018-11-29T03:06:03.863Z,66.50
2018-11-29T03:16:07.971Z,66.80
2018-11-29T03:26:12.176Z,66.10
2018-11-29T03:36:16.269Z,66.80
2018-11-29T03:46:20.432Z,66.80
2018-11-29T03:56:24.516Z,66.40
2018-11-29T04:06:28.613Z,66.60
2018-11-29T04:16:32.727Z,66.40
2018-11-29T04:26:36.822Z,66.70
2018-11-29T04:36:40.976Z,65.70
2018-11-29T04:46:46.621Z,65.50
2018-11-29T04:56:50.740Z,66.30
2018-11-29T05:06:54.937Z,65.00
2018-11-29T05:16:59.071Z,65.00
2018-11-29T05:27:03.193Z,64.90
2018-11-29T05:37:07.341Z,64.70
2018-11-29T05:47:11.506Z,64.80
2018-11-29T05:57:15.690Z,64.80
2018-11-29T06:07:19.876Z,65.20
2018-11-29T06:17:24.039Z,64.50
2018-11-29T06:27:28.444Z,64.00
2018-11-29T06:37:32.650Z,63.50
2018-11-29T06:47:37.092Z,63.30
2018-11-29T06:57:41.228Z,63.10
2018-11-29T07:07:45.300Z,62.30
2018-11-29T07:17:49.550Z,62.40
2018-11-29T07:27:53.654Z,61.80
2018-11-29T07:37:58.206Z,61.80
2018-11-29T07:48:02.575Z,63.10
2018-11-29T07:58:07.532Z,62.60
2018-11-29T08:08:11.719Z,62.70
2018-11-29T08:18:16.021Z,64.20
2018-11-29T08:28:20.125Z,62.20
2018-11-29T08:38:24.245Z,61.50
2018-11-29T08:48:28.780Z,60.60
2018-11-29T08:58:33.075Z,58.20
2018-11-29T09:08:37.162Z,57.00
2018-11-29T09:18:41.531Z,55.20
2018-11-29T09:28:45.766Z,55.00
2018-11-29T09:38:49.971Z,54.80
2018-11-29T09:48:54.369Z,54.30
2018-11-29T09:58:58.622Z,53.50
2018-11-29T10:09:02.783Z,52.80
2018-11-29T10:19:07.009Z,51.70
2018-11-29T10:29:11.229Z,50.70
2018-11-29T10:39:15.423Z,50.60
2018-11-29T10:49:19.673Z,52.00
2018-11-29T10:59:23.797Z,52.30
2018-11-29T11:09:27.957Z,52.10
2018-11-29T11:19:32.123Z,52.00
2018-11-29T11:29:36.501Z,51.30
2018-11-29T11:39:40.682Z,50.40
2018-11-29T11:49:44.839Z,50.20
2018-11-29T11:59:48.973Z,49.80
2018-11-29T12:09:53.130Z,50.30
2018-11-29T12:19:57.260Z,50.70
2018-11-29T12:30:01.622Z,50.30
2018-11-29T12:40:08.223Z,50.20
2018-11-29T12:50:15.319Z,50.90
2018-11-29T13:00:20.702Z,53.60
2018-11-29T13:10:26.722Z,54.80
2018-11-29T13:20:32.610Z,54.60
2018-11-29T13:30:36.381Z,55.90
2018-11-29T13:40:41.586Z,55.80
2018-11-29T13:50:45.858Z,55.10
2018-11-29T14:00:50.084Z,55.40
2018-11-29T14:10:54.348Z,54.50
2018-11-29T14:20:58.530Z,53.90
2018-11-29T14:31:02.835Z,53.30
2018-11-29T14:41:07.318Z,52.70
2018-11-29T14:51:11.426Z,52.10
2018-11-29T15:01:15.741Z,51.60
2018-11-29T15:11:19.839Z,51.60
2018-11-29T15:21:24.110Z,51.20
2018-11-29T15:31:28.267Z,50.70
2018-11-29T15:41:32.439Z,50.30
2018-11-29T15:51:37.077Z,50.30
2018-11-29T16:01:41.677Z,50.50
2018-11-29T16:11:46.089Z,50.40
2018-11-29T16:21:51.333Z,50.20
2018-11-29T16:31:54.957Z,50.00
2018-11-29T16:41:59.658Z,50.90
2018-11-29T16:52:04.147Z,50.30
2018-11-29T17:02:08.595Z,50.00
2018-11-29T17:12:13.141Z,49.50
2018-11-29T17:22:17.542Z,49.80
2018-11-29T17:32:22.268Z,50.20
2018-11-29T17:42:26.804Z,50.20
2018-11-29T17:52:31.239Z,50.40
2018-11-29T18:02:36.056Z,50.80
2018-11-29T18:12:40.490Z,51.90
2018-11-29T18:22:44.966Z,52.60
2018-11-29T18:32:49.409Z,52.50
2018-11-29T18:42:55.377Z,53.00
2018-11-29T18:53:00.784Z,53.40
2018-11-29T19:03:05.588Z,53.20
2018-11-29T19:13:11.182Z,54.40
2018-11-29T19:23:15.683Z,54.30
2018-11-29T19:33:22.738Z,54.20
2018-11-29T19:43:27.185Z,55.50
2018-11-29T19:53:31.651Z,55.60
2018-11-29T20:03:36.115Z,54.70
2018-11-29T20:13:40.567Z,57.00
2018-11-29T20:23:44.945Z,60.50
2018-11-29T20:33:49.345Z,61.20
2018-11-29T20:43:53.962Z,61.20
2018-11-29T20:53:58.430Z,60.60
2018-11-29T21:04:03.178Z,60.60
2018-11-29T21:14:07.931Z,59.80
2018-11-29T21:24:12.448Z,59.00
2018-11-29T21:34:16.821Z,58.40
2018-11-29T21:44:21.239Z,57.80
2018-11-29T21:54:25.608Z,57.20
2018-11-29T22:04:30.053Z,57.00
2018-11-29T22:14:34.430Z,56.10
2018-11-29T22:24:38.840Z,56.00
2018-11-29T22:34:43.323Z,55.00
2018-11-29T22:44:47.710Z,54.40
2018-11-29T22:54:52.202Z,54.20
2018-11-29T23:04:56.649Z,54.70
2018-11-29T23:15:01.049Z,56.20
2018-11-29T23:25:06.502Z,57.10
2018-11-29T23:35:11.461Z,58.20
2018-11-29T23:45:15.884Z,59.50
2018-11-29T23:55:21.226Z,59.20
